createdAt,value
2018-05-24T00:01:47.824Z,51.60
2018-05-24T00:04:14.131Z,51.50
2018-05-24T00:06:40.390Z,51.50
2018-05-24T00:09:06.639Z,51.50
2018-05-24T00:11:32.877Z,51.40
2018-05-24T00:13:59.136Z,51.40
2018-05-24T00:16:25.378Z,51.40
2018-05-24T00:18:51.583Z,51.20
2018-05-24T00:21:17.843Z,51.10
2018-05-24T00:23:44.059Z,50.70
2018-05-24T00:26:10.288Z,50.70
2018-05-24T00:28:36.502Z,50.90
2018-05-24T00:31:02.741Z,50.90
2018-05-24T00:33:28.973Z,50.70
2018-05-24T00:36:02.150Z,50.80
2018-05-24T00:38:28.346Z,50.80
2018-05-24T00:40:54.581Z,50.90
2018-05-24T00:48:25.173Z,51.50
2018-05-24T00:50:51.409Z,50.90
2018-05-24T00:53:17.635Z,50.90
2018-05-24T00:55:43.856Z,51.20
2018-05-24T00:58:10.121Z,51.20
2018-05-24T01:00:37.071Z,51.40
2018-05-24T01:03:04.049Z,51.50
2018-05-24T01:15:48.992Z,51.20
2018-05-24T01:18:15.298Z,51.90
2018-05-24T01:20:41.528Z,51.80
2018-05-24T01:23:07.734Z,51.70
2018-05-24T01:25:34.671Z,52.00
2018-05-24T01:28:01.698Z,52.20
2018-05-24T01:30:27.897Z,52.20
2018-05-24T01:32:54.158Z,52.20
2018-05-24T01:35:21.120Z,51.90
2018-05-24T01:37:48.907Z,52.20
2018-05-24T01:40:15.154Z,52.10
2018-05-24T01:42:41.352Z,52.20
2018-05-24T01:45:07.649Z,52.30
2018-05-24T01:47:33.870Z,52.30
2018-05-24T01:50:00.139Z,52.20
2018-05-24T01:52:26.367Z,52.30
2018-05-24T01:54:52.735Z,52.40
2018-05-24T01:57:18.951Z,52.00
2018-05-24T01:59:45.188Z,52.20
2018-05-24T02:02:11.399Z,52.20
2018-05-24T02:04:37.617Z,52.20
2018-05-24T02:07:03.876Z,52.20
2018-05-24T02:09:30.083Z,52.00
2018-05-24T02:11:56.323Z,52.10
2018-05-24T02:14:22.545Z,52.10
2018-05-24T02:16:48.786Z,52.30
2018-05-24T02:19:15.015Z,52.10
2018-05-24T02:21:41.243Z,52.10
2018-05-24T02:24:07.458Z,51.50
2018-05-24T02:26:33.688Z,51.60
2018-05-24T02:28:59.996Z,51.20
2018-05-24T02:31:26.132Z,51.70
2018-05-24T02:33:52.357Z,50.80
2018-05-24T02:36:18.556Z,51.00
2018-05-24T02:38:44.802Z,51.90
2018-05-24T02:41:11.043Z,52.80
2018-05-24T02:43:37.234Z,51.30
2018-05-24T02:46:04.264Z,51.00
2018-05-24T02:48:31.226Z,51.10
2018-05-24T02:50:58.175Z,51.60
2018-05-24T02:53:24.392Z,51.10
2018-05-24T02:55:51.360Z,50.80
2018-05-24T02:58:17.681Z,50.80
2018-05-24T03:00:43.968Z,50.90
2018-05-24T03:03:10.186Z,51.00
2018-05-24T03:05:36.421Z,51.40
2018-05-24T03:08:02.649Z,52.20
2018-05-24T03:10:28.889Z,52.30
2018-05-24T03:12:55.851Z,52.90
2018-05-24T03:15:22.876Z,53.00
2018-05-24T03:17:49.083Z,53.00
2018-05-24T03:20:15.296Z,55.70
2018-05-24T03:22:41.531Z,62.10
2018-05-24T03:25:07.723Z,70.10
2018-05-24T03:27:33.956Z,77.20
2018-05-24T03:30:00.154Z,83.10
2018-05-24T03:32:27.100Z,88.40
2018-05-24T03:34:54.054Z,89.00
2018-05-24T03:37:20.990Z,91.60
2018-05-24T03:39:47.939Z,93.80
2018-05-24T03:42:14.890Z,95.50
2018-05-24T03:44:41.836Z,96.50
2018-05-24T03:47:08.774Z,97.60
2018-05-24T03:49:35.747Z,98.20
2018-05-24T03:52:01.993Z,98.20
2018-05-24T03:54:28.219Z,98.40
2018-05-24T03:56:54.509Z,99.10
2018-05-24T04:02:44.589Z,99.90
2018-05-24T04:05:10.836Z,99.90
2018-05-24T04:07:37.819Z,99.90
2018-05-24T04:10:04.086Z,99.90
2018-05-24T04:12:30.305Z,99.90
2018-05-24T04:14:56.528Z,99.90
2018-05-24T04:17:22.762Z,99.90
2018-05-24T04:19:49.035Z,99.90
2018-05-24T04:22:15.277Z,99.90
2018-05-24T04:24:41.498Z,99.90
2018-05-24T04:27:07.788Z,99.90
2018-05-24T04:29:34.069Z,99.90
2018-05-24T04:32:00.287Z,99.90
2018-05-24T04:34:26.512Z,99.90
2018-05-24T04:36:52.727Z,99.90
2018-05-24T04:39:18.920Z,99.90
2018-05-24T04:41:45.153Z,99.90
2018-05-24T04:44:11.362Z,99.90
2018-05-24T04:46:37.601Z,99.90
2018-05-24T04:49:03.895Z,99.90
2018-05-24T04:51:30.105Z,99.90
2018-05-24T04:53:56.343Z,99.90
2018-05-24T04:56:22.564Z,99.90
2018-05-24T04:58:48.772Z,99.90
2018-05-24T05:01:15.003Z,99.90
2018-05-24T05:03:41.230Z,99.90
2018-05-24T05:06:07.434Z,99.90
2018-05-24T05:08:33.706Z,99.90
2018-05-24T05:10:59.905Z,99.90
2018-05-24T05:13:26.932Z,99.90
2018-05-24T05:15:53.081Z,99.90
2018-05-24T05:18:19.328Z,99.90
2018-05-24T05:20:45.572Z,99.90
2018-05-24T05:23:11.895Z,99.90
2018-05-24T05:25:38.074Z,99.90
2018-05-24T05:28:04.298Z,99.90
2018-05-24T05:30:30.545Z,99.90
2018-05-24T05:32:56.761Z,99.90
2018-05-24T05:35:22.983Z,99.90
2018-05-24T05:37:49.204Z,99.90
2018-05-24T05:40:16.219Z,99.90
2018-05-24T05:42:42.433Z,99.90
2018-05-24T05:45:08.677Z,99.90
2018-05-24T05:47:34.905Z,99.90
2018-05-24T05:50:01.154Z,99.90
2018-05-24T05:52:27.394Z,99.90
2018-05-24T05:54:53.620Z,99.90
2018-05-24T05:57:19.833Z,99.90
2018-05-24T05:59:46.077Z,99.90
2018-05-24T06:02:12.302Z,99.90
2018-05-24T06:04:38.674Z,99.90
2018-05-24T06:07:04.976Z,99.90
2018-05-24T06:09:31.960Z,99.90
2018-05-24T06:11:58.216Z,99.90
2018-05-24T06:14:24.638Z,99.90
2018-05-24T06:16:50.854Z,99.90
2018-05-24T06:19:17.070Z,99.90
2018-05-24T06:21:43.323Z,99.90
2018-05-24T06:24:09.638Z,99.90
2018-05-24T06:26:35.920Z,99.90
2018-05-24T06:29:02.917Z,99.90
2018-05-24T06:31:29.143Z,99.90
2018-05-24T06:33:55.382Z,99.90
2018-05-24T06:36:21.587Z,99.90
2018-05-24T06:38:47.781Z,99.90
2018-05-24T06:41:14.743Z,99.90
2018-05-24T06:43:40.978Z,99.90
2018-05-24T06:46:07.190Z,99.90
2018-05-24T06:48:34.154Z,99.90
2018-05-24T06:51:00.370Z,99.90
2018-05-24T06:53:26.612Z,99.90
2018-05-24T06:55:53.002Z,99.90
2018-05-24T06:58:19.974Z,99.90
2018-05-24T07:00:46.179Z,99.90
2018-05-24T07:03:13.134Z,99.90
2018-05-24T07:05:40.551Z,98.60
2018-05-24T07:08:06.793Z,98.50
2018-05-24T07:10:32.983Z,98.40
2018-05-24T07:12:59.200Z,97.80
2018-05-24T07:15:25.415Z,98.60
2018-05-24T07:17:51.675Z,97.40
2018-05-24T07:20:17.910Z,98.10
2018-05-24T07:22:44.113Z,97.70
2018-05-24T07:25:10.334Z,99.20
2018-05-24T07:27:36.605Z,99.90
2018-05-24T07:30:02.878Z,99.40
2018-05-24T07:32:29.129Z,99.50
2018-05-24T07:34:55.452Z,96.60
2018-05-24T07:37:21.739Z,95.90
2018-05-24T07:39:48.826Z,97.60
2018-05-24T07:42:15.760Z,97.70
2018-05-24T07:44:42.047Z,97.70
2018-05-24T07:47:08.342Z,97.20
2018-05-24T07:49:34.560Z,97.70
2018-05-24T07:52:00.778Z,97.60
2018-05-24T07:54:26.992Z,98.30
2018-05-24T07:56:53.211Z,96.90
2018-05-24T07:59:20.166Z,96.50
2018-05-24T08:01:46.493Z,96.50
2018-05-24T08:04:12.616Z,97.50
2018-05-24T08:06:38.886Z,97.70
2018-05-24T08:09:05.126Z,98.50
2018-05-24T08:11:31.331Z,98.10
2018-05-24T08:13:57.538Z,99.80
2018-05-24T08:16:23.796Z,97.20
2018-05-24T08:18:50.005Z,97.20
2018-05-24T08:21:16.244Z,96.20
2018-05-24T08:23:42.496Z,94.80
2018-05-24T08:26:08.788Z,96.70
2018-05-24T08:28:35.042Z,95.60
2018-05-24T08:31:01.283Z,95.90
2018-05-24T08:33:27.498Z,97.60
2018-05-24T08:35:53.719Z,97.00
2018-05-24T08:38:19.984Z,94.90
2018-05-24T08:40:46.201Z,96.20
2018-05-24T08:43:12.730Z,94.90
2018-05-24T08:45:38.955Z,94.20
2018-05-24T08:48:05.169Z,94.70
2018-05-24T08:50:31.418Z,93.90
2018-05-24T08:52:57.687Z,94.20
2018-05-24T08:55:23.922Z,94.40
2018-05-24T08:57:50.178Z,95.40
2018-05-24T09:00:16.488Z,95.70
2018-05-24T09:02:42.809Z,94.60
2018-05-24T09:05:09.029Z,94.60
2018-05-24T09:07:35.301Z,94.50
2018-05-24T09:10:02.388Z,94.60
2018-05-24T09:12:29.329Z,92.90
2018-05-24T09:14:56.287Z,93.50
2018-05-24T09:17:23.371Z,94.50
2018-05-24T09:19:49.588Z,94.50
2018-05-24T09:22:15.827Z,94.80
2018-05-24T09:24:42.394Z,94.90
2018-05-24T09:27:08.752Z,94.90
2018-05-24T09:29:34.977Z,95.20
2018-05-24T09:32:01.999Z,95.20
2018-05-24T09:34:28.213Z,95.20
2018-05-24T09:36:54.471Z,93.90
2018-05-24T09:39:21.505Z,93.70
2018-05-24T09:41:47.727Z,93.80
2018-05-24T09:44:13.959Z,92.30
2018-05-24T09:46:40.180Z,92.90
2018-05-24T09:49:06.394Z,93.20
2018-05-24T09:51:32.589Z,93.10
2018-05-24T09:53:58.822Z,94.20
2018-05-24T09:56:25.031Z,91.60
2018-05-24T09:58:51.241Z,93.30
2018-05-24T10:01:18.202Z,92.10
2018-05-24T10:03:44.504Z,92.20
2018-05-24T10:06:11.462Z,91.50
2018-05-24T10:08:38.426Z,90.70
2018-05-24T10:11:04.670Z,90.70
2018-05-24T10:13:30.931Z,90.40
2018-05-24T10:15:57.143Z,90.50
2018-05-24T10:18:23.385Z,89.50
2018-05-24T10:20:49.614Z,90.80
2018-05-24T10:23:15.837Z,87.30
2018-05-24T10:25:42.817Z,90.80
2018-05-24T10:28:09.795Z,90.90
2018-05-24T10:30:35.982Z,90.90
2018-05-24T10:33:02.958Z,86.70
2018-05-24T10:35:29.218Z,86.50
2018-05-24T10:37:55.442Z,78.10
2018-05-24T10:40:21.639Z,76.10
2018-05-24T10:42:47.908Z,77.80
2018-05-24T10:45:14.175Z,76.40
2018-05-24T10:47:40.347Z,74.30
2018-05-24T10:50:06.577Z,69.60
2018-05-24T10:52:32.974Z,70.40
2018-05-24T10:54:59.184Z,70.20
2018-05-24T10:57:26.246Z,66.80
2018-05-24T10:59:52.468Z,66.70
2018-05-24T11:02:19.428Z,65.10
2018-05-24T11:04:45.693Z,65.10
2018-05-24T11:07:11.918Z,65.40
2018-05-24T11:09:38.146Z,63.80
2018-05-24T11:12:04.366Z,62.20
2018-05-24T11:14:30.622Z,62.00
2018-05-24T11:16:56.836Z,62.00
2018-05-24T11:19:23.094Z,59.90
2018-05-24T11:21:50.130Z,57.00
2018-05-24T11:24:16.337Z,57.10
2018-05-24T11:26:42.565Z,56.10
2018-05-24T11:29:08.767Z,54.50
2018-05-24T11:31:35.053Z,51.90
2018-05-24T11:34:02.042Z,49.90
2018-05-24T11:36:28.280Z,49.80
2018-05-24T11:38:54.546Z,50.10
2018-05-24T11:41:20.766Z,51.40
2018-05-24T11:43:47.001Z,51.20
2018-05-24T11:46:13.236Z,51.40
2018-05-24T11:48:39.538Z,51.10
2018-05-24T11:51:05.839Z,50.00
2018-05-24T11:53:32.077Z,49.50
2018-05-24T11:55:58.275Z,48.50
2018-05-24T11:58:24.509Z,48.90
2018-05-24T12:00:50.787Z,50.30
2018-05-24T12:03:17.039Z,51.40
2018-05-24T12:05:44.046Z,51.30
2018-05-24T12:08:10.985Z,49.60
2018-05-24T12:10:37.288Z,50.20
2018-05-24T12:13:04.237Z,48.20
2018-05-24T12:15:30.459Z,48.20
2018-05-24T12:17:56.660Z,48.20
2018-05-24T12:20:23.603Z,47.70
2018-05-24T12:22:50.560Z,48.70
2018-05-24T12:25:16.785Z,48.60
2018-05-24T12:27:43.790Z,47.80
2018-05-24T12:30:09.990Z,47.80
2018-05-24T12:32:36.198Z,48.10
2018-05-24T12:35:02.428Z,48.60
2018-05-24T12:37:28.663Z,48.30
2018-05-24T12:39:54.944Z,49.30
2018-05-24T12:42:21.141Z,48.40
2018-05-24T12:44:47.370Z,47.80
2018-05-24T12:47:13.601Z,47.60
2018-05-24T12:49:39.879Z,47.70
2018-05-24T12:52:06.129Z,48.80
2018-05-24T12:54:32.361Z,49.20
2018-05-24T12:56:58.667Z,50.40
2018-05-24T12:59:24.972Z,50.20
2018-05-24T13:01:51.210Z,50.10
2018-05-24T13:04:18.274Z,49.50
2018-05-24T13:06:45.229Z,47.90
2018-05-24T13:09:11.459Z,47.80
2018-05-24T13:11:37.737Z,46.80
2018-05-24T13:14:03.999Z,47.40
2018-05-24T13:16:30.196Z,47.50
2018-05-24T13:18:56.448Z,48.70
2018-05-24T13:21:23.430Z,48.50
2018-05-24T13:23:49.663Z,48.40
2018-05-24T13:26:15.993Z,48.00
2018-05-24T13:28:42.376Z,48.80
2018-05-24T13:31:09.419Z,49.80
2018-05-24T13:33:36.473Z,50.30
2018-05-24T13:36:03.497Z,50.30
2018-05-24T13:38:29.709Z,50.30
2018-05-24T13:40:55.947Z,50.70
2018-05-24T13:43:22.213Z,50.90
2018-05-24T13:45:48.465Z,52.10
2018-05-24T13:48:14.684Z,53.00
2018-05-24T13:50:40.923Z,53.40
2018-05-24T13:53:07.190Z,54.40
2018-05-24T13:55:33.453Z,54.80
2018-05-24T13:57:59.758Z,55.40
2018-05-24T14:00:29.929Z,55.70
2018-05-24T14:02:56.159Z,56.90
2018-05-24T14:05:22.362Z,56.20
2018-05-24T14:07:48.626Z,56.70
2018-05-24T14:10:14.828Z,56.40
2018-05-24T14:12:41.096Z,56.40
2018-05-24T14:15:07.310Z,56.20
2018-05-24T14:17:34.264Z,55.10
2018-05-24T14:20:00.506Z,55.60
2018-05-24T14:22:26.724Z,55.00
2018-05-24T14:24:52.965Z,54.90
2018-05-24T14:27:19.174Z,54.10
2018-05-24T14:29:45.412Z,54.50
2018-05-24T14:32:11.616Z,54.30
2018-05-24T14:34:37.854Z,55.20
2018-05-24T14:37:04.114Z,54.90
2018-05-24T14:39:30.314Z,55.30
2018-05-24T14:41:56.684Z,56.40
2018-05-24T14:44:23.633Z,58.30
2018-05-24T14:46:50.657Z,57.20
2018-05-24T14:49:16.851Z,57.30
2018-05-24T14:51:43.150Z,57.90
2018-05-24T14:54:09.439Z,58.70
2018-05-24T14:56:35.691Z,58.80
2018-05-24T14:59:02.678Z,59.20
2018-05-24T15:01:28.912Z,59.20
2018-05-24T15:03:55.159Z,59.40
2018-05-24T15:06:21.413Z,59.40
2018-05-24T15:08:48.408Z,61.10
2018-05-24T15:11:14.611Z,61.10
2018-05-24T15:13:49.945Z,61.60
2018-05-24T15:16:16.252Z,61.20
2018-05-24T15:18:43.232Z,61.20
2018-05-24T15:21:09.562Z,61.20
2018-05-24T15:23:35.825Z,60.70
2018-05-24T15:26:02.170Z,61.10
2018-05-24T15:28:28.618Z,60.50
2018-05-24T15:30:55.624Z,61.40
2018-05-24T15:33:21.904Z,61.40
2018-05-24T15:35:49.008Z,63.20
2018-05-24T15:38:15.266Z,63.20
2018-05-24T15:40:42.332Z,63.20
2018-05-24T15:43:09.300Z,63.80
2018-05-24T15:45:36.145Z,63.80
2018-05-24T15:48:02.405Z,63.90
2018-05-24T15:50:28.637Z,64.70
2018-05-24T15:52:54.879Z,64.60
2018-05-24T15:55:21.134Z,64.40
2018-05-24T15:57:47.351Z,64.40
2018-05-24T16:00:14.428Z,63.10
2018-05-24T16:02:40.684Z,63.10
2018-05-24T16:05:14.197Z,62.60
2018-05-24T16:07:40.451Z,62.80
2018-05-24T16:10:07.471Z,62.90
2018-05-24T16:12:33.682Z,62.90
2018-05-24T16:14:59.937Z,62.30
2018-05-24T16:17:26.130Z,62.30
2018-05-24T16:19:52.384Z,62.10
2018-05-24T16:22:18.609Z,61.50
2018-05-24T16:24:44.884Z,60.80
2018-05-24T16:27:11.712Z,60.40
2018-05-24T16:29:38.682Z,61.20
2018-05-24T16:32:05.030Z,61.30
2018-05-24T16:34:31.243Z,61.40
2018-05-24T16:36:57.523Z,61.00
2018-05-24T16:39:24.514Z,60.90
2018-05-24T16:41:50.903Z,60.20
2018-05-24T16:44:17.175Z,59.60
2018-05-24T16:46:43.454Z,59.60
2018-05-24T16:49:09.693Z,59.50
2018-05-24T16:51:36.702Z,59.30
2018-05-24T16:54:02.920Z,59.20
2018-05-24T16:56:29.167Z,59.50
2018-05-24T16:58:55.416Z,60.00
2018-05-24T17:01:21.642Z,60.30
2018-05-24T17:03:47.889Z,61.90
2018-05-24T17:06:15.108Z,62.30
2018-05-24T17:08:41.366Z,62.10
2018-05-24T17:11:07.584Z,62.70
2018-05-24T17:13:34.553Z,65.10
2018-05-24T17:16:00.823Z,64.40
2018-05-24T17:18:27.086Z,64.60
2018-05-24T17:20:54.078Z,64.10
2018-05-24T17:23:20.331Z,64.10
2018-05-24T17:25:46.566Z,65.00
2018-05-24T17:28:12.843Z,65.70
2018-05-24T17:30:39.073Z,65.40
2018-05-24T17:33:05.298Z,65.20
2018-05-24T17:35:31.574Z,64.20
2018-05-24T17:37:57.793Z,64.60
2018-05-24T17:40:24.022Z,64.20
2018-05-24T17:42:50.283Z,64.60
2018-05-24T17:45:17.285Z,64.60
2018-05-24T17:47:43.500Z,64.50
2018-05-24T17:50:09.782Z,64.20
2018-05-24T17:52:36.801Z,65.30
2018-05-24T17:55:03.108Z,64.50
2018-05-24T17:57:29.332Z,64.50
2018-05-24T17:59:55.599Z,64.50
2018-05-24T18:02:21.879Z,64.30
2018-05-24T18:04:48.109Z,65.10
2018-05-24T18:07:16.482Z,65.80
2018-05-24T18:12:15.643Z,66.40
2018-05-24T18:14:41.889Z,66.90
2018-05-24T18:17:08.877Z,68.20
2018-05-24T18:19:35.119Z,68.10
2018-05-24T18:22:01.321Z,69.20
2018-05-24T18:24:27.615Z,69.50
2018-05-24T18:26:54.589Z,70.80
2018-05-24T18:29:20.826Z,70.30
2018-05-24T18:31:47.049Z,70.20
2018-05-24T18:34:13.257Z,70.30
2018-05-24T18:36:40.234Z,71.00
2018-05-24T18:39:06.521Z,71.00
2018-05-24T18:41:33.491Z,71.70
2018-05-24T18:43:59.747Z,71.70
2018-05-24T18:46:26.004Z,72.10
2018-05-24T18:48:52.263Z,72.50
2018-05-24T18:51:18.601Z,72.80
2018-05-24T18:53:44.809Z,73.30
2018-05-24T18:56:11.100Z,73.30
2018-05-24T18:58:37.344Z,73.80
2018-05-24T19:01:03.559Z,74.10
2018-05-24T19:03:29.848Z,73.90
2018-05-24T19:05:56.107Z,74.30
2018-05-24T19:08:22.360Z,74.40
2018-05-24T19:10:48.565Z,75.00
2018-05-24T19:13:14.824Z,74.70
2018-05-24T19:15:41.106Z,75.00
2018-05-24T19:18:07.385Z,74.90
2018-05-24T19:20:34.554Z,74.80
2018-05-24T19:23:00.746Z,75.30
2018-05-24T19:25:27.058Z,75.60
2018-05-24T19:27:53.274Z,75.10
2018-05-24T19:30:19.509Z,75.30
2018-05-24T19:32:45.809Z,75.50
2018-05-24T19:35:12.039Z,74.80
2018-05-24T19:37:38.291Z,74.80
2018-05-24T19:40:04.546Z,74.60
2018-05-24T19:42:30.774Z,74.70
2018-05-24T19:44:57.028Z,74.30
2018-05-24T19:47:24.049Z,74.70
2018-05-24T19:49:51.026Z,74.40
2018-05-24T19:52:18.023Z,74.00
2018-05-24T19:54:44.999Z,73.80
2018-05-24T19:57:12.210Z,73.80
2018-05-24T19:59:42.803Z,74.10
2018-05-24T20:02:16.416Z,74.00
2018-05-24T20:04:43.856Z,73.30
2018-05-24T20:07:16.152Z,73.40
2018-05-24T20:09:44.010Z,73.40
2018-05-24T20:12:17.922Z,73.60
2018-05-24T20:14:49.123Z,73.50
2018-05-24T20:17:17.540Z,74.30
2018-05-24T20:19:47.870Z,73.50
2018-05-24T20:22:14.661Z,73.40
2018-05-24T20:24:43.321Z,73.40
2018-05-24T20:27:13.233Z,73.10
2018-05-24T20:29:40.244Z,72.80
2018-05-24T20:32:06.479Z,72.80
2018-05-24T20:34:32.774Z,73.20
2018-05-24T20:36:59.780Z,73.50
2018-05-24T20:39:25.997Z,73.50
2018-05-24T20:41:52.275Z,73.60
2018-05-24T20:44:18.476Z,73.50
2018-05-24T20:46:44.775Z,73.60
2018-05-24T20:49:11.131Z,73.20
2018-05-24T20:51:37.495Z,73.40
2018-05-24T20:54:04.577Z,74.20
2018-05-24T20:56:30.827Z,74.10
2018-05-24T20:58:57.158Z,73.60
2018-05-24T21:01:23.361Z,74.00
2018-05-24T21:03:49.611Z,74.20
2018-05-24T21:06:15.833Z,74.70
2018-05-24T21:08:42.092Z,74.70
2018-05-24T21:11:08.443Z,75.00
2018-05-24T21:13:34.808Z,74.90
2018-05-24T21:16:03.209Z,75.00
2018-05-24T21:18:29.435Z,74.90
2018-05-24T21:20:55.690Z,75.10
2018-05-24T21:23:21.862Z,75.60
2018-05-24T21:25:48.110Z,76.10
2018-05-24T21:28:14.380Z,76.20
2018-05-24T21:30:40.610Z,77.10
2018-05-24T21:33:07.633Z,77.40
2018-05-24T21:35:33.854Z,77.30
2018-05-24T21:38:00.182Z,77.60
2018-05-24T21:40:26.376Z,78.10
2018-05-24T21:42:52.619Z,78.60
2018-05-24T21:45:18.809Z,79.10
2018-05-24T21:47:45.788Z,79.80
2018-05-24T21:50:12.018Z,79.70
2018-05-24T21:52:38.270Z,80.40
2018-05-24T21:55:05.234Z,81.30
2018-05-24T21:57:31.465Z,81.40
2018-05-24T21:59:57.798Z,81.50
2018-05-24T22:02:24.747Z,82.20
2018-05-24T22:04:51.798Z,82.80
2018-05-24T22:07:18.789Z,82.90
2018-05-24T22:09:45.127Z,82.90
2018-05-24T22:12:11.349Z,82.90
2018-05-24T22:14:37.609Z,83.10
2018-05-24T22:17:03.903Z,84.00
2018-05-24T22:19:30.115Z,83.90
2018-05-24T22:21:56.337Z,84.20
2018-05-24T22:24:22.604Z,83.90
2018-05-24T22:26:48.951Z,85.20
2018-05-24T22:29:15.206Z,85.50
2018-05-24T22:31:42.196Z,85.80
2018-05-24T22:34:08.410Z,85.70
2018-05-24T22:36:34.624Z,85.50
2018-05-24T22:39:00.858Z,86.30
2018-05-24T22:41:27.187Z,86.70
2018-05-24T22:43:53.393Z,86.70
2018-05-24T22:46:20.349Z,87.80
2018-05-24T22:48:46.591Z,87.80
2018-05-24T22:51:12.837Z,87.20
2018-05-24T22:53:39.031Z,87.40
2018-05-24T22:56:05.238Z,88.00
2018-05-24T22:58:32.174Z,87.60
2018-05-24T23:00:59.170Z,87.50
2018-05-24T23:03:25.403Z,87.40
2018-05-24T23:05:51.650Z,87.60
2018-05-24T23:08:17.859Z,87.50
2018-05-24T23:10:44.053Z,88.70
2018-05-24T23:13:10.311Z,88.20
2018-05-24T23:15:36.541Z,88.50
2018-05-24T23:18:02.777Z,88.70
2018-05-24T23:20:28.984Z,89.00
2018-05-24T23:22:55.203Z,89.70
2018-05-24T23:25:21.414Z,89.30
2018-05-24T23:27:47.694Z,88.90
2018-05-24T23:30:13.890Z,89.30
2018-05-24T23:32:40.137Z,90.10
2018-05-24T23:35:06.339Z,90.00
2018-05-24T23:37:32.578Z,90.00
2018-05-24T23:39:58.810Z,90.10
2018-05-24T23:42:25.052Z,89.60
2018-05-24T23:44:51.320Z,90.10
2018-05-24T23:47:18.265Z,90.40
2018-05-24T23:49:45.996Z,90.60
2018-05-24T23:52:12.251Z,90.60
2018-05-24T23:54:38.447Z,90.50
2018-05-24T23:57:04.670Z,90.70
2018-05-24T23:59:30.918Z,90.80
